Mastronikos — SVA6956 — position and weather

sailwx.info

Track history (hours):
 
Tides and Currents Weather Stations Pressure Air Temp Water Temp Dewpoint Dewpoint Depression Visibility Wind Speed Wind Dir Waves Ship Positions

Mastronikos

Last reported at 2017-Sep-26 05:46 UTC. Time now 2017-Sep-26 16:41 UTC.
Position N 38°22' E 024°28'.

Length 81 m.

Type: Cargo ship. MMSI: 239943900.

Date/timePositionNaut miles runAvg speedWind from/ knotsBaromVisibWave heightAir tempDewpointWater temp
2017-Sep-26 05:46N 38°22' E 024°28'38 7.5
2017-Sep-26 00:40N 37°45' E 024°17'10 9.3
2017-Sep-25 23:35N 37°38' E 024°07'2 9.2
2017-Sep-25 23:19N 37°38' E 024°04'4 9.2
2017-Sep-25 22:56N 37°38' E 023°59'4 9.4
2017-Sep-25 22:30N 37°38' E 023°54'5 9.3
2017-Sep-25 22:00N 37°38' E 023°48'5 9.3
2017-Sep-25 21:30N 37°39' E 023°43'5 9.1
2017-Sep-25 21:00N 37°39' E 023°37'4 9.0
2017-Sep-25 20:30N 37°40' E 023°31'5 9.1
2017-Sep-25 20:00N 37°40' E 023°26'4 8.9
2017-Sep-25 19:30N 37°40' E 023°20'4 8.8
2017-Sep-25 19:00N 37°43' E 023°16'5 9.1
2017-Sep-25 18:30N 37°47' E 023°13'4 8.8
2017-Sep-25 18:00N 37°50' E 023°09'5 9.2
2017-Sep-25 17:30N 37°53' E 023°04'3 6.0
2017-Sep-25 16:59N 37°55' E 023°01'0 0.0
2017-Sep-25 16:29N 37°55' E 023°01'0 0.0
2017-Sep-25 15:59N 37°55' E 023°01'0 0.0
2017-Sep-25 15:29N 37°55' E 023°02'0 0.0
2017-Sep-25 14:59N 37°55' E 023°02'0 0.0
2017-Sep-25 14:29N 37°55' E 023°01'0 0.0
2017-Sep-25 13:59N 37°55' E 023°01'0 0.0
2017-Sep-25 13:29N 37°55' E 023°01'0 0.0
2017-Sep-25 12:59N 37°55' E 023°01'0 0.0
2017-Sep-25 12:29N 37°55' E 023°02'0 0.0
2017-Sep-25 11:59N 37°55' E 023°02'0 0.0
2017-Sep-25 09:56N 37°55' E 023°01'0 0.0
2017-Sep-25 09:29N 37°55' E 023°01'0 0.0
2017-Sep-25 08:23N 37°55' E 023°01'0 0.0
2017-Sep-25 07:59N 37°55' E 023°01'0 0.0
2017-Sep-25 07:29N 37°55' E 023°01'0 0.0
2017-Sep-25 06:59N 37°55' E 023°01'0 0.0
2017-Sep-25 06:29N 37°55' E 023°01'0 0.0
2017-Sep-25 05:59N 37°55' E 023°01'0 0.0
2017-Sep-25 05:29N 37°55' E 023°01'0 0.0
2017-Sep-25 04:59N 37°55' E 023°01'0 0.0
2017-Sep-25 04:29N 37°55' E 023°01'0 0.2
2017-Sep-25 04:00N 37°55' E 023°01'0 0.6
2017-Sep-25 03:30N 37°55' E 023°02'3 5.0
2017-Sep-25 03:01N 37°53' E 023°04'4 7.3
2017-Sep-25 02:31N 37°51' E 023°08'4 7.2
2017-Sep-25 02:00N 37°49' E 023°11'4 7.5
2017-Sep-25 01:30N 37°46' E 023°14'4 7.5
2017-Sep-25 01:00N 37°43' E 023°17'4 7.2
2017-Sep-25 00:30N 37°40' E 023°19'4 7.6
2017-Sep-25 00:00N 37°39' E 023°24'4 7.5
2017-Sep-24 23:30N 37°39' E 023°29'4 7.4
2017-Sep-24 23:00N 37°39' E 023°33'4 7.6
2017-Sep-24 22:31N 37°39' E 023°38'4 7.6
2017-Sep-24 22:00N 37°38' E 023°43'4 7.3
2017-Sep-24 21:30N 37°38' E 023°48'4 7.1
2017-Sep-24 20:59N 37°38' E 023°52'5 7.2
2017-Sep-24 20:21N 37°38' E 023°58'5 7.7
2017-Sep-24 19:43N 37°38' E 024°04'2 7.8
2017-Sep-24 19:25N 37°38' E 024°07'10 7.9
2017-Sep-24 18:10N 37°44' E 024°17'  
2017-Sep-20 14:56N 36°51' E 024°21'10 0.7
2017-Sep-19 23:42N 36°42' E 024°28'2 5.8
2017-Sep-19 23:26N 36°43' E 024°26'4 9.4
2017-Sep-19 23:00N 36°46' E 024°22'6 9.7
2017-Sep-19 22:26N 36°43' E 024°16'4 9.8
2017-Sep-19 22:00N 36°41' E 024°12'5 9.6
2017-Sep-19 21:30N 36°37' E 024°07'5 9.4
2017-Sep-19 21:00N 36°34' E 024°03'4 8.0
2017-Sep-19 20:30N 36°30' E 024°02'5 9.0
2017-Sep-19 20:00N 36°26' E 024°03'4 8.8
2017-Sep-19 19:30N 36°22' E 024°04'6 8.6
2017-Sep-19 18:51N 36°16' E 024°06'3 8.5
2017-Sep-19 18:27N 36°13' E 024°07'4 8.2
2017-Sep-19 18:00N 36°09' E 024°08'4 7.7
2017-Sep-19 17:30N 36°06' E 024°09'5 7.4
2017-Sep-19 16:48N 36°01' E 024°11'3 7.4
2017-Sep-19 16:28N 35°58' E 024°12'4 7.3
2017-Sep-19 15:56N 35°54' E 024°13'4 8.1
2017-Sep-19 15:30N 35°51' E 024°13'4 8.1
2017-Sep-19 14:59N 35°47' E 024°13'4 8.2
2017-Sep-19 14:30N 35°43' E 024°13'4 8.3
2017-Sep-19 14:00N 35°39' E 024°13'4 8.6
2017-Sep-19 13:29N 35°34' E 024°13'5 9.0
2017-Sep-19 12:58N 35°30' E 024°12'4 8.6
2017-Sep-19 12:29N 35°29' E 024°07'  
2017-Sep-16 21:25N 35°29' E 024°04'2 3.7
2017-Sep-16 20:56N 35°29' E 024°07'28 7.4
2017-Sep-16 17:07N 35°57' E 024°13'1 8.3
2017-Sep-16 17:00N 35°58' E 024°13'  
Track history (hours):
 
Tides and Currents Weather Stations Pressure Air Temp Water Temp Dewpoint Dewpoint Depression Visibility Wind Speed Wind Dir Waves Ship Positions

Mastronikos

Last reported at 2017-Sep-26 05:46 UTC. Time now 2017-Sep-26 16:41 UTC.
Position N 38°22' E 024°28'.

Length 81 m.

Type: Cargo ship. MMSI: 239943900.

Date/timePositionNaut miles runAvg speedWind from/ knotsBaromVisibWave heightAir tempDewpointWater temp
2017-Sep-26 05:46N 38°22' E 024°28'38 7.5
2017-Sep-26 00:40N 37°45' E 024°17'10 9.3
2017-Sep-25 23:35N 37°38' E 024°07'2 9.2
2017-Sep-25 23:19N 37°38' E 024°04'4 9.2
2017-Sep-25 22:56N 37°38' E 023°59'4 9.4
2017-Sep-25 22:30N 37°38' E 023°54'5 9.3
2017-Sep-25 22:00N 37°38' E 023°48'5 9.3
2017-Sep-25 21:30N 37°39' E 023°43'5 9.1
2017-Sep-25 21:00N 37°39' E 023°37'4 9.0
2017-Sep-25 20:30N 37°40' E 023°31'5 9.1
2017-Sep-25 20:00N 37°40' E 023°26'4 8.9
2017-Sep-25 19:30N 37°40' E 023°20'4 8.8
2017-Sep-25 19:00N 37°43' E 023°16'5 9.1
2017-Sep-25 18:30N 37°47' E 023°13'4 8.8
2017-Sep-25 18:00N 37°50' E 023°09'5 9.2
2017-Sep-25 17:30N 37°53' E 023°04'3 6.0
2017-Sep-25 16:59N 37°55' E 023°01'0 0.0
2017-Sep-25 16:29N 37°55' E 023°01'0 0.0
2017-Sep-25 15:59N 37°55' E 023°01'0 0.0
2017-Sep-25 15:29N 37°55' E 023°02'0 0.0
2017-Sep-25 14:59N 37°55' E 023°02'0 0.0
2017-Sep-25 14:29N 37°55' E 023°01'0 0.0
2017-Sep-25 13:59N 37°55' E 023°01'0 0.0
2017-Sep-25 13:29N 37°55' E 023°01'0 0.0
2017-Sep-25 12:59N 37°55' E 023°01'0 0.0
2017-Sep-25 12:29N 37°55' E 023°02'0 0.0
2017-Sep-25 11:59N 37°55' E 023°02'0 0.0
2017-Sep-25 09:56N 37°55' E 023°01'0 0.0
2017-Sep-25 09:29N 37°55' E 023°01'0 0.0
2017-Sep-25 08:23N 37°55' E 023°01'0 0.0
2017-Sep-25 07:59N 37°55' E 023°01'0 0.0
2017-Sep-25 07:29N 37°55' E 023°01'0 0.0
2017-Sep-25 06:59N 37°55' E 023°01'0 0.0
2017-Sep-25 06:29N 37°55' E 023°01'0 0.0
2017-Sep-25 05:59N 37°55' E 023°01'0 0.0
2017-Sep-25 05:29N 37°55' E 023°01'0 0.0
2017-Sep-25 04:59N 37°55' E 023°01'0 0.0
2017-Sep-25 04:29N 37°55' E 023°01'0 0.2
2017-Sep-25 04:00N 37°55' E 023°01'0 0.6
2017-Sep-25 03:30N 37°55' E 023°02'3 5.0
2017-Sep-25 03:01N 37°53' E 023°04'4 7.3
2017-Sep-25 02:31N 37°51' E 023°08'4 7.2
2017-Sep-25 02:00N 37°49' E 023°11'4 7.5
2017-Sep-25 01:30N 37°46' E 023°14'4 7.5
2017-Sep-25 01:00N 37°43' E 023°17'4 7.2
2017-Sep-25 00:30N 37°40' E 023°19'4 7.6
2017-Sep-25 00:00N 37°39' E 023°24'4 7.5
2017-Sep-24 23:30N 37°39' E 023°29'4 7.4
2017-Sep-24 23:00N 37°39' E 023°33'4 7.6
2017-Sep-24 22:31N 37°39' E 023°38'4 7.6
2017-Sep-24 22:00N 37°38' E 023°43'4 7.3
2017-Sep-24 21:30N 37°38' E 023°48'4 7.1
2017-Sep-24 20:59N 37°38' E 023°52'5 7.2
2017-Sep-24 20:21N 37°38' E 023°58'5 7.7
2017-Sep-24 19:43N 37°38' E 024°04'2 7.8
2017-Sep-24 19:25N 37°38' E 024°07'10 7.9
2017-Sep-24 18:10N 37°44' E 024°17'  
2017-Sep-20 14:56N 36°51' E 024°21'10 0.7
2017-Sep-19 23:42N 36°42' E 024°28'2 5.8
2017-Sep-19 23:26N 36°43' E 024°26'4 9.4
2017-Sep-19 23:00N 36°46' E 024°22'6 9.7
2017-Sep-19 22:26N 36°43' E 024°16'4 9.8
2017-Sep-19 22:00N 36°41' E 024°12'5 9.6
2017-Sep-19 21:30N 36°37' E 024°07'5 9.4
2017-Sep-19 21:00N 36°34' E 024°03'4 8.0
2017-Sep-19 20:30N 36°30' E 024°02'5 9.0
2017-Sep-19 20:00N 36°26' E 024°03'4 8.8
2017-Sep-19 19:30N 36°22' E 024°04'6 8.6
2017-Sep-19 18:51N 36°16' E 024°06'3 8.5
2017-Sep-19 18:27N 36°13' E 024°07'4 8.2
2017-Sep-19 18:00N 36°09' E 024°08'4 7.7
2017-Sep-19 17:30N 36°06' E 024°09'5 7.4
2017-Sep-19 16:48N 36°01' E 024°11'3 7.4
2017-Sep-19 16:28N 35°58' E 024°12'4 7.3
2017-Sep-19 15:56N 35°54' E 024°13'4 8.1
2017-Sep-19 15:30N 35°51' E 024°13'4 8.1
2017-Sep-19 14:59N 35°47' E 024°13'4 8.2
2017-Sep-19 14:30N 35°43' E 024°13'4 8.3
2017-Sep-19 14:00N 35°39' E 024°13'4 8.6
2017-Sep-19 13:29N 35°34' E 024°13'5 9.0
2017-Sep-19 12:58N 35°30' E 024°12'4 8.6
2017-Sep-19 12:29N 35°29' E 024°07'  
2017-Sep-16 21:25N 35°29' E 024°04'2 3.7
2017-Sep-16 20:56N 35°29' E 024°07'28 7.4
2017-Sep-16 17:07N 35°57' E 024°13'1 8.3
2017-Sep-16 17:00N 35°58' E 024°13'  

Dump ship's entire track history